createdAt,value
2022-09-06T02:14:34.504Z,72.90
2022-09-06T02:17:08.631Z,73.21
2022-09-06T02:20:21.096Z,73.59
2022-09-06T02:23:12.455Z,74.36
2022-09-06T02:28:56.965Z,75.84
2022-09-06T02:31:35.831Z,75.87
2022-09-06T02:34:04.759Z,75.81
2022-09-06T02:36:37.886Z,76.15
2022-09-06T02:39:10.962Z,76.46
2022-09-06T02:41:46.518Z,76.41
2022-09-06T02:44:28.804Z,75.95
2022-09-06T02:46:58.112Z,75.81
2022-09-06T02:49:26.443Z,75.53
2022-09-06T02:51:55.167Z,75.63
2022-09-06T02:54:26.920Z,75.66
2022-09-06T02:56:57.542Z,75.32
2022-09-06T02:59:24.999Z,75.15
2022-09-06T03:02:03.851Z,74.92
2022-09-06T03:04:31.880Z,75.08
2022-09-06T03:06:59.518Z,74.53
2022-09-06T03:09:31.528Z,74.54
2022-09-06T03:12:01.161Z,74.50
2022-09-06T03:14:32.233Z,74.50
2022-09-06T03:36:48.871Z,75.02
2022-09-06T03:39:27.107Z,75.18
2022-09-06T03:42:29.580Z,75.41
2022-09-06T03:44:56.816Z,75.66
2022-09-06T03:47:28.708Z,75.82
2022-09-06T03:49:57.203Z,75.89
2022-09-06T03:52:25.792Z,75.86
2022-09-06T03:54:53.391Z,75.83
2022-09-06T03:57:23.549Z,75.86
2022-09-06T03:59:53.191Z,76.14
2022-09-06T04:02:21.376Z,76.32
2022-09-06T04:04:57.682Z,76.69
2022-09-06T04:07:27.571Z,76.93
2022-09-06T04:09:55.299Z,76.81
2022-09-06T04:12:22.731Z,76.91
2022-09-06T04:15:12.072Z,77.31
2022-09-06T04:17:45.283Z,77.46
2022-09-06T04:20:15.716Z,77.67
2022-09-06T04:22:44.604Z,77.71
2022-09-06T04:25:13.858Z,77.74
2022-09-06T04:27:41.081Z,77.74
2022-09-06T04:30:10.911Z,77.68
2022-09-06T04:32:41.848Z,77.61
2022-09-06T04:35:09.531Z,77.70
2022-09-06T04:37:40.305Z,77.82
2022-09-06T04:40:13.761Z,77.67
2022-09-06T04:42:47.591Z,77.77
2022-09-06T04:45:20.908Z,77.70
2022-09-06T04:47:50.319Z,77.75
2022-09-06T04:50:19.928Z,77.78
2022-09-06T04:52:50.065Z,77.74
2022-09-06T04:55:21.015Z,77.95
2022-09-06T04:57:52.911Z,78.09
2022-09-06T05:00:22.474Z,78.22
2022-09-06T05:02:55.269Z,78.70
2022-09-06T05:30:04.564Z,79.57
2022-09-06T05:32:33.453Z,80.11
2022-09-06T05:35:08.137Z,80.23
2022-09-06T05:37:36.779Z,79.97
2022-09-06T05:40:05.228Z,79.56
2022-09-06T05:42:37.729Z,79.48
2022-09-06T05:45:09.131Z,79.45
2022-09-06T05:50:22.469Z,79.25
2022-09-06T05:52:53.067Z,79.45
2022-09-06T05:55:22.725Z,79.30
2022-09-06T05:57:50.916Z,79.18
2022-09-06T06:00:18.731Z,79.22
2022-09-06T06:02:49.581Z,79.35
2022-09-06T06:05:17.154Z,79.00
2022-09-06T06:13:14.464Z,78.47
2022-09-06T06:15:43.099Z,78.22
2022-09-06T06:18:10.536Z,77.78
2022-09-06T06:20:38.301Z,77.77
2022-09-06T06:23:28.175Z,77.32
2022-09-06T06:26:03.324Z,77.09
2022-09-06T06:28:32.780Z,76.71
2022-09-06T06:31:08.224Z,76.19
2022-09-06T06:33:38.232Z,75.78
2022-09-06T09:59:47.305Z,45.39
2022-09-06T10:05:25.511Z,45.64
2022-09-06T10:07:57.738Z,45.37
2022-09-06T10:10:28.319Z,44.83
2022-09-06T10:13:23.866Z,43.87
2022-09-06T11:51:43.907Z,38.67
2022-09-06T11:54:42.996Z,38.89
2022-09-06T11:57:20.564Z,37.79
2022-09-06T11:59:50.727Z,38.58
2022-09-06T12:02:37.430Z,38.26
2022-09-06T12:05:07.229Z,38.39
2022-09-06T12:07:37.770Z,37.71
2022-09-06T12:10:29.645Z,37.29
2022-09-06T12:12:58.773Z,37.81
2022-09-06T12:15:45.741Z,36.92
2022-09-06T12:18:54.133Z,37.29
2022-09-06T12:21:47.504Z,36.37
2022-09-06T12:24:43.777Z,35.92
2022-09-06T12:27:18.425Z,34.55
2022-09-06T12:30:14.004Z,35.98
2022-09-06T12:32:49.780Z,36.33
2022-09-06T12:38:18.692Z,36.47
2022-09-06T12:40:58.565Z,35.69
2022-09-06T12:43:27.032Z,35.00
2022-09-06T12:45:54.380Z,35.37
2022-09-06T12:48:31.744Z,34.93
2022-09-06T12:51:19.507Z,34.92
2022-09-06T12:53:59.540Z,35.01
2022-09-06T12:56:30.764Z,35.30
2022-09-06T12:59:19.411Z,35.32
2022-09-06T13:02:05.575Z,35.36
2022-09-06T13:04:41.851Z,34.36
2022-09-06T13:07:14.531Z,33.66
2022-09-06T13:09:47.968Z,32.24
2022-09-06T13:12:45.870Z,30.42
2022-09-06T13:15:31.261Z,30.82
2022-09-06T13:18:35.411Z,31.43
2022-09-06T13:21:12.104Z,31.97
2022-09-06T13:23:50.325Z,31.49
2022-09-06T13:26:40.358Z,31.89
2022-09-06T13:29:32.124Z,31.99
2022-09-06T13:32:02.396Z,31.46
2022-09-06T13:34:33.439Z,31.35
2022-09-06T13:37:08.680Z,32.49
2022-09-06T13:39:46.588Z,31.54
2022-09-06T13:42:27.590Z,30.85
2022-09-06T13:44:58.763Z,29.56
2022-09-06T13:47:30.034Z,28.67
2022-09-06T13:49:57.154Z,29.28
2022-09-06T13:52:24.263Z,29.59
2022-09-06T13:54:51.331Z,29.81
2022-09-06T13:57:23.984Z,29.36
2022-09-06T13:59:54.791Z,30.09
2022-09-06T14:02:22.046Z,30.01
2022-09-06T14:04:49.623Z,30.22
2022-09-06T14:07:17.071Z,29.88
2022-09-06T14:09:44.272Z,29.68
2022-09-06T14:12:11.373Z,30.16
2022-09-06T14:14:38.657Z,29.69
2022-09-06T14:17:05.919Z,30.47
2022-09-06T14:19:33.027Z,30.91
2022-09-06T14:22:00.216Z,30.61
2022-09-06T14:24:29.358Z,31.39
2022-09-06T14:26:56.452Z,30.27
2022-09-06T14:29:23.637Z,31.12
2022-09-06T14:31:50.788Z,30.60
2022-09-06T14:34:18.332Z,30.48
2022-09-06T14:36:46.515Z,31.05
2022-09-06T14:39:13.694Z,30.68
2022-09-06T14:41:40.844Z,30.34
2022-09-06T14:44:09.336Z,30.64
2022-09-06T14:46:37.051Z,31.18
2022-09-06T14:49:12.380Z,31.87
2022-09-06T14:51:40.698Z,31.91
2022-09-06T14:54:12.419Z,30.78
2022-09-06T14:56:44.152Z,30.78
2022-09-06T14:59:11.995Z,30.61
2022-09-06T15:01:39.800Z,30.88
2022-09-06T15:04:11.100Z,30.47
2022-09-06T15:06:41.107Z,29.20
2022-09-06T15:09:08.309Z,29.68
2022-09-06T15:11:46.576Z,29.59
2022-09-06T15:14:18.934Z,30.63
2022-09-06T15:16:54.793Z,31.11
2022-09-06T15:19:28.666Z,30.97
2022-09-06T15:21:57.342Z,30.94
2022-09-06T15:24:25.706Z,31.52
2022-09-06T15:26:52.931Z,30.32
2022-09-06T15:29:20.497Z,30.81
2022-09-06T15:31:50.709Z,29.65
2022-09-06T15:34:21.258Z,30.55
2022-09-06T15:36:49.533Z,30.41
2022-09-06T15:39:17.797Z,30.32
2022-09-06T15:41:45.027Z,31.04
2022-09-06T15:44:18.792Z,31.48
2022-09-06T15:46:56.792Z,30.36
2022-09-06T15:49:28.655Z,30.92
2022-09-06T15:51:58.649Z,31.07
2022-09-06T15:54:44.487Z,31.21
2022-09-06T15:57:16.149Z,31.30
2022-09-06T15:59:43.878Z,31.46
2022-09-06T16:02:11.278Z,31.91
2022-09-06T16:04:38.556Z,31.91
2022-09-06T16:07:07.182Z,31.73
2022-09-06T16:09:34.395Z,31.82
2022-09-06T16:12:01.722Z,31.80
2022-09-06T16:14:28.942Z,32.18
2022-09-06T16:16:57.287Z,31.95
2022-09-06T16:19:26.011Z,31.41
2022-09-06T16:21:53.615Z,32.08
2022-09-06T16:24:21.352Z,31.94
2022-09-06T16:26:48.625Z,32.65
2022-09-06T16:29:19.036Z,32.19
2022-09-06T16:31:46.896Z,33.11
2022-09-06T16:34:15.739Z,32.93
2022-09-06T16:36:43.166Z,33.80
2022-09-06T16:39:10.882Z,34.28
2022-09-06T16:41:42.578Z,34.55
2022-09-06T16:44:16.322Z,34.84
2022-09-06T16:46:49.751Z,34.64
2022-09-06T16:49:19.929Z,34.93
2022-09-06T16:51:49.958Z,35.02
2022-09-06T16:54:18.762Z,35.24
2022-09-06T16:56:47.623Z,35.38
2022-09-06T16:59:18.093Z,35.64
2022-09-06T17:01:45.735Z,35.83
2022-09-06T17:04:13.962Z,35.99
2022-09-06T17:06:45.078Z,36.11
2022-09-06T17:09:19.391Z,36.73
2022-09-06T17:11:49.951Z,37.30
2022-09-06T17:14:18.271Z,37.72
2022-09-06T17:17:04.379Z,37.96
2022-09-06T17:19:36.558Z,38.71
2022-09-06T17:22:04.502Z,38.83
2022-09-06T17:24:31.635Z,38.98
2022-09-06T17:26:58.871Z,39.20
2022-09-06T17:29:28.059Z,39.12
2022-09-06T17:31:56.035Z,39.51
2022-09-06T17:34:23.188Z,39.47
2022-09-06T17:36:50.338Z,39.61
2022-09-06T17:39:23.685Z,39.82
2022-09-06T17:41:55.632Z,40.16
2022-09-06T17:44:26.242Z,40.24
2022-09-06T17:49:42.834Z,40.13
2022-09-06T17:52:10.322Z,40.33
2022-09-06T17:54:37.555Z,40.44
2022-09-06T17:57:04.695Z,40.75
2022-09-06T17:59:35.404Z,40.91
2022-09-06T18:02:04.726Z,40.94
2022-09-06T18:04:31.914Z,41.07
2022-09-06T18:06:59.061Z,41.25
2022-09-06T18:09:26.208Z,41.26
2022-09-06T18:11:53.283Z,41.53
2022-09-06T18:14:23.440Z,41.55
2022-09-06T18:16:52.409Z,41.53
2022-09-06T18:19:20.099Z,41.94
2022-09-06T18:21:48.979Z,41.70
2022-09-06T18:24:16.714Z,41.96
2022-09-06T18:26:44.836Z,42.20
2022-09-06T18:29:14.895Z,41.93
2022-09-06T18:31:43.346Z,42.49
2022-09-06T18:34:10.659Z,42.65
2022-09-06T18:36:39.130Z,42.87
2022-09-06T18:39:06.717Z,43.09
2022-09-06T18:41:53.164Z,43.55
2022-09-06T18:44:20.774Z,43.80
2022-09-06T18:46:48.591Z,44.11
2022-09-06T18:49:16.340Z,44.48
2022-09-06T18:51:44.652Z,44.88
2022-09-06T18:54:12.293Z,44.99
2022-09-06T18:56:41.173Z,45.41
2022-09-06T18:59:08.647Z,45.67
2022-09-06T19:01:37.280Z,45.84
2022-09-06T19:04:06.568Z,46.08
2022-09-06T19:06:36.730Z,46.23
2022-09-06T19:09:08.677Z,46.59
2022-09-06T19:11:36.455Z,46.54
2022-09-06T19:14:05.352Z,46.66
2022-09-06T19:16:32.678Z,46.97
2022-09-06T19:19:07.500Z,47.08
2022-09-06T19:21:41.490Z,47.36
2022-09-06T19:24:12.098Z,47.63
2022-09-06T19:26:44.759Z,47.74
2022-09-06T19:29:15.955Z,47.83
2022-09-06T19:31:44.846Z,48.03
2022-09-06T19:34:13.533Z,48.26
2022-09-06T19:36:41.230Z,48.24
2022-09-06T19:39:12.661Z,48.45
2022-09-06T19:41:45.122Z,48.57
2022-09-06T19:44:14.753Z,48.70
2022-09-06T19:46:46.739Z,48.15
2022-09-06T19:49:16.936Z,48.29
2022-09-06T19:51:46.437Z,48.18
2022-09-06T19:54:15.748Z,48.17
2022-09-06T19:56:44.262Z,48.22
2022-09-06T19:59:13.774Z,48.26
2022-09-06T20:01:43.872Z,48.10
2022-09-06T20:04:13.080Z,48.44
2022-09-06T20:06:40.738Z,48.25
2022-09-06T20:09:10.054Z,48.32
2022-09-06T20:11:39.952Z,48.48
2022-09-06T20:14:07.566Z,48.49
2022-09-06T20:16:39.338Z,48.77
2022-09-06T20:19:08.395Z,48.62
2022-09-06T20:21:38.504Z,48.96
2022-09-06T20:24:05.889Z,48.87
2022-09-06T20:26:33.252Z,49.23
2022-09-06T20:29:02.992Z,49.24
2022-09-06T20:31:32.274Z,49.36
2022-09-06T20:34:02.440Z,49.52
2022-09-06T20:36:30.189Z,49.64
2022-09-06T20:38:57.314Z,49.91
2022-09-06T20:41:26.783Z,49.71
2022-09-06T20:43:56.973Z,50.09
2022-09-06T20:46:27.847Z,50.33
2022-09-06T20:48:59.722Z,50.07
2022-09-06T20:51:26.828Z,50.21
2022-09-06T20:53:57.343Z,50.00
2022-09-06T20:56:38.657Z,49.80
2022-09-06T20:59:12.059Z,50.08
2022-09-06T21:01:46.521Z,50.07
2022-09-06T21:04:16.895Z,49.92
2022-09-06T21:06:45.840Z,49.64
2022-09-06T21:09:14.595Z,49.94
2022-09-06T21:11:42.692Z,49.61
2022-09-06T21:14:10.313Z,50.13
2022-09-06T21:16:38.943Z,50.19
2022-09-06T21:19:08.795Z,50.27
2022-09-06T21:21:36.730Z,50.48
2022-09-06T21:24:06.396Z,50.58
2022-09-06T21:26:34.149Z,50.76
2022-09-06T21:29:03.839Z,50.94
2022-09-06T21:31:34.775Z,51.34
2022-09-06T21:34:06.439Z,51.40
2022-09-06T21:36:39.171Z,51.59
2022-09-06T21:39:12.266Z,51.46
2022-09-06T21:41:42.335Z,51.65
2022-09-06T21:44:10.415Z,51.91
2022-09-06T21:46:40.181Z,52.14
2022-09-06T21:49:13.418Z,52.52
2022-09-06T21:51:42.042Z,52.68
2022-09-06T21:54:09.768Z,53.11
2022-09-06T21:56:39.382Z,53.78
2022-09-06T21:59:10.877Z,53.71
2022-09-06T22:01:40.652Z,53.84
2022-09-06T22:04:08.848Z,53.66
2022-09-06T22:06:37.771Z,54.42
2022-09-06T22:09:11.551Z,54.13
2022-09-06T22:11:40.453Z,54.37
2022-09-06T22:14:12.091Z,54.58
2022-09-06T22:16:41.547Z,54.90
2022-09-06T22:19:10.042Z,55.21
2022-09-06T22:21:38.751Z,55.91
2022-09-06T22:24:09.920Z,55.83
2022-09-06T22:26:39.876Z,56.04
2022-09-06T22:29:10.931Z,56.55
2022-09-06T22:31:39.510Z,56.83
2022-09-06T22:34:07.599Z,56.89
2022-09-06T22:36:36.804Z,57.18
2022-09-06T22:39:04.234Z,57.27
2022-09-06T22:41:33.909Z,57.44
2022-09-06T22:44:02.510Z,57.12
2022-09-06T22:46:30.038Z,57.09
2022-09-06T22:48:57.212Z,57.10
2022-09-06T22:51:24.691Z,57.84
2022-09-06T22:53:51.782Z,57.31
2022-09-06T22:56:18.908Z,58.39
2022-09-06T22:58:45.963Z,59.36
2022-09-06T23:01:16.484Z,60.39
2022-09-06T23:03:44.601Z,61.02
2022-09-06T23:06:12.177Z,62.13
2022-09-06T23:08:41.060Z,62.50
2022-09-06T23:11:12.765Z,63.23
2022-09-06T23:13:44.171Z,64.15
2022-09-06T23:16:16.853Z,66.28
2022-09-06T23:18:45.209Z,67.09
2022-09-06T23:21:16.971Z,68.28
2022-09-06T23:23:44.822Z,69.40
2022-09-06T23:26:21.619Z,70.17
2022-09-06T23:28:56.471Z,71.94
2022-09-06T23:31:27.528Z,72.22
2022-09-06T23:33:57.315Z,72.87
2022-09-06T23:36:26.458Z,73.91
2022-09-06T23:38:53.632Z,75.32
2022-09-06T23:41:20.650Z,75.55
2022-09-06T23:43:47.794Z,75.93
2022-09-06T23:46:15.941Z,76.41
2022-09-06T23:48:43.499Z,76.97
2022-09-06T23:51:12.298Z,77.43
2022-09-06T23:53:40.111Z,78.05
2022-09-06T23:56:08.187Z,78.42
2022-09-06T23:58:36.918Z,78.93
